sensor_id;sensor_type;location;lat;lon;timestamp;pressure;altitude;pressure_sealevel;temperature;humidity
80777;BME280;70169;51.262;6.336;2023-06-14T00:00:56;100742.44;;;18.84;51.60
80777;BME280;70169;51.262;6.336;2023-06-14T00:03:11;100741.59;;;18.83;50.59
80777;BME280;70169;51.262;6.336;2023-06-14T00:05:27;100740.31;;;18.86;51.13
80777;BME280;70169;51.262;6.336;2023-06-14T00:07:44;100748.09;;;18.87;51.41
80777;BME280;70169;51.262;6.336;2023-06-14T00:10:03;100741.66;;;18.88;50.63
80777;BME280;70169;51.262;6.336;2023-06-14T00:12:19;100750.28;;;18.90;50.68
80777;BME280;70169;51.262;6.336;2023-06-14T00:14:34;100737.94;;;18.89;50.29
80777;BME280;70169;51.262;6.336;2023-06-14T00:16:50;100747.84;;;18.89;50.86
80777;BME280;70169;51.262;6.336;2023-06-14T00:19:08;100751.56;;;18.88;50.98
80777;BME280;70169;51.262;6.336;2023-06-14T00:21:25;100747.25;;;18.87;50.92
80777;BME280;70169;51.262;6.336;2023-06-14T00:23:43;100752.06;;;18.85;50.26
80777;BME280;70169;51.262;6.336;2023-06-14T00:25:58;100754.75;;;18.85;50.17
80777;BME280;70169;51.262;6.336;2023-06-14T00:28:15;100755.59;;;18.85;50.20
80777;BME280;70169;51.262;6.336;2023-06-14T00:30:30;100760.94;;;18.85;49.83
80777;BME280;70169;51.262;6.336;2023-06-14T00:32:46;100759.53;;;18.83;49.80
80777;BME280;70169;51.262;6.336;2023-06-14T00:35:01;100761.19;;;18.84;49.55
80777;BME280;70169;51.262;6.336;2023-06-14T00:37:17;100760.09;;;18.85;49.51
80777;BME280;70169;51.262;6.336;2023-06-14T00:39:32;100757.44;;;18.85;49.25
80777;BME280;70169;51.262;6.336;2023-06-14T00:41:47;100762.22;;;18.83;49.40
80777;BME280;70169;51.262;6.336;2023-06-14T00:44:03;100756.84;;;18.83;48.57
80777;BME280;70169;51.262;6.336;2023-06-14T00:46:18;100756.06;;;18.82;48.72
80777;BME280;70169;51.262;6.336;2023-06-14T00:48:35;100758.50;;;18.84;48.58
80777;BME280;70169;51.262;6.336;2023-06-14T00:50:52;100761.19;;;18.84;48.93
80777;BME280;70169;51.262;6.336;2023-06-14T00:53:07;100764.09;;;18.82;48.77
80777;BME280;70169;51.262;6.336;2023-06-14T00:55:23;100761.41;;;18.82;48.25
80777;BME280;70169;51.262;6.336;2023-06-14T00:57:38;100761.41;;;18.82;48.90
80777;BME280;70169;51.262;6.336;2023-06-14T00:59:55;100765.13;;;18.81;49.42
80777;BME280;70169;51.262;6.336;2023-06-14T01:02:11;100772.38;;;18.81;49.55
80777;BME280;70169;51.262;6.336;2023-06-14T01:04:26;100770.19;;;18.77;50.06
80777;BME280;70169;51.262;6.336;2023-06-14T01:06:55;100770.47;;;18.76;50.16
80777;BME280;70169;51.262;6.336;2023-06-14T01:09:33;100768.78;;;18.70;49.93
80777;BME280;70169;51.262;6.336;2023-06-14T01:14:45;100769.78;;;18.64;50.61
80777;BME280;70169;51.262;6.336;2023-06-14T01:17:03;100776.44;;;18.61;51.07
80777;BME280;70169;51.262;6.336;2023-06-14T01:19:20;100775.34;;;18.57;50.69
80777;BME280;70169;51.262;6.336;2023-06-14T01:21:37;100773.16;;;18.54;51.43
80777;BME280;70169;51.262;6.336;2023-06-14T01:23:56;100769.13;;;18.51;51.81
80777;BME280;70169;51.262;6.336;2023-06-14T01:26:12;100768.81;;;18.48;52.16
80777;BME280;70169;51.262;6.336;2023-06-14T01:28:27;100768.75;;;18.43;52.11
80777;BME280;70169;51.262;6.336;2023-06-14T01:30:52;100772.97;;;18.38;52.05
80777;BME280;70169;51.262;6.336;2023-06-14T01:33:08;100778.03;;;18.35;52.55
80777;BME280;70169;51.262;6.336;2023-06-14T01:35:24;100770.19;;;18.28;52.08
80777;BME280;70169;51.262;6.336;2023-06-14T01:37:40;100769.91;;;18.25;51.99
80777;BME280;70169;51.262;6.336;2023-06-14T01:39:56;100776.00;;;18.20;52.05
80777;BME280;70169;51.262;6.336;2023-06-14T01:42:13;100773.81;;;18.17;51.85
80777;BME280;70169;51.262;6.336;2023-06-14T01:44:30;100778.63;;;18.15;52.21
80777;BME280;70169;51.262;6.336;2023-06-14T01:46:45;100772.69;;;18.13;52.29
80777;BME280;70169;51.262;6.336;2023-06-14T01:49:01;100768.91;;;18.09;52.28
80777;BME280;70169;51.262;6.336;2023-06-14T01:51:17;100772.06;;;18.06;52.50
80777;BME280;70169;51.262;6.336;2023-06-14T01:53:32;100771.50;;;18.03;52.80
80777;BME280;70169;51.262;6.336;2023-06-14T01:55:47;100776.53;;;18.00;53.06
80777;BME280;70169;51.262;6.336;2023-06-14T01:58:04;100782.16;;;17.98;52.99
80777;BME280;70169;51.262;6.336;2023-06-14T02:00:20;100771.94;;;17.95;53.20
80777;BME280;70169;51.262;6.336;2023-06-14T02:02:36;100776.47;;;17.95;53.12
80777;BME280;70169;51.262;6.336;2023-06-14T02:04:51;100767.34;;;17.91;52.97
80777;BME280;70169;51.262;6.336;2023-06-14T02:07:07;100771.84;;;17.90;52.28
80777;BME280;70169;51.262;6.336;2023-06-14T02:09:23;100775.03;;;17.87;51.85
80777;BME280;70169;51.262;6.336;2023-06-14T02:11:38;100776.88;;;17.86;52.27
80777;BME280;70169;51.262;6.336;2023-06-14T02:13:54;100784.69;;;17.88;52.53
80777;BME280;70169;51.262;6.336;2023-06-14T02:16:10;100779.53;;;17.86;52.09
80777;BME280;70169;51.262;6.336;2023-06-14T02:18:25;100780.03;;;17.83;52.04
80777;BME280;70169;51.262;6.336;2023-06-14T02:20:41;100777.34;;;17.83;52.90
80777;BME280;70169;51.262;6.336;2023-06-14T02:22:57;100786.44;;;17.82;53.14
80777;BME280;70169;51.262;6.336;2023-06-14T02:25:12;100775.16;;;17.80;53.61
80777;BME280;70169;51.262;6.336;2023-06-14T02:27:27;100778.09;;;17.79;53.95
80777;BME280;70169;51.262;6.336;2023-06-14T02:29:43;100781.53;;;17.74;54.50
80777;BME280;70169;51.262;6.336;2023-06-14T02:31:58;100783.06;;;17.70;54.72
80777;BME280;70169;51.262;6.336;2023-06-14T02:34:14;100784.59;;;17.66;54.71
80777;BME280;70169;51.262;6.336;2023-06-14T02:36:31;100790.69;;;17.61;55.13
80777;BME280;70169;51.262;6.336;2023-06-14T02:38:47;100786.88;;;17.57;55.17
80777;BME280;70169;51.262;6.336;2023-06-14T02:41:02;100786.56;;;17.54;55.42
80777;BME280;70169;51.262;6.336;2023-06-14T02:43:19;100791.00;;;17.48;54.98
80777;BME280;70169;51.262;6.336;2023-06-14T02:45:34;100787.78;;;17.46;55.56
80777;BME280;70169;51.262;6.336;2023-06-14T02:47:50;100782.94;;;17.43;55.38
80777;BME280;70169;51.262;6.336;2023-06-14T02:50:07;100792.81;;;17.42;55.96
80777;BME280;70169;51.262;6.336;2023-06-14T02:52:22;100791.66;;;17.38;55.90
80777;BME280;70169;51.262;6.336;2023-06-14T02:54:40;100795.06;;;17.34;56.11
80777;BME280;70169;51.262;6.336;2023-06-14T02:56:55;100801.72;;;17.31;55.91
80777;BME280;70169;51.262;6.336;2023-06-14T02:59:10;100800.31;;;17.28;56.47
80777;BME280;70169;51.262;6.336;2023-06-14T03:01:27;100798.97;;;17.26;56.51
80777;BME280;70169;51.262;6.336;2023-06-14T03:03:48;100801.88;;;17.24;56.75
80777;BME280;70169;51.262;6.336;2023-06-14T03:06:04;100803.63;;;17.19;56.82
80777;BME280;70169;51.262;6.336;2023-06-14T03:08:20;100811.09;;;17.17;56.75
80777;BME280;70169;51.262;6.336;2023-06-14T03:10:35;100814.47;;;17.12;56.92
80777;BME280;70169;51.262;6.336;2023-06-14T03:12:51;100811.25;;;17.10;56.82
80777;BME280;70169;51.262;6.336;2023-06-14T03:15:08;100808.00;;;17.08;56.89
80777;BME280;70169;51.262;6.336;2023-06-14T03:17:24;100818.09;;;17.06;56.95
80777;BME280;70169;51.262;6.336;2023-06-14T03:19:40;100819.16;;;17.05;57.21
80777;BME280;70169;51.262;6.336;2023-06-14T03:21:56;100816.16;;;17.01;56.58
80777;BME280;70169;51.262;6.336;2023-06-14T03:24:15;100818.03;;;17.01;57.28
80777;BME280;70169;51.262;6.336;2023-06-14T03:26:31;100821.72;;;17.00;57.51
80777;BME280;70169;51.262;6.336;2023-06-14T03:28:49;100820.94;;;16.99;57.76
80777;BME280;70169;51.262;6.336;2023-06-14T03:31:05;100826.50;;;16.98;58.10
80777;BME280;70169;51.262;6.336;2023-06-14T03:33:20;100819.22;;;16.93;57.97
80777;BME280;70169;51.262;6.336;2023-06-14T03:35:36;100836.28;;;16.92;58.21
80777;BME280;70169;51.262;6.336;2023-06-14T03:37:51;100838.94;;;16.92;58.38
80777;BME280;70169;51.262;6.336;2023-06-14T03:40:06;100833.28;;;16.88;57.57
80777;BME280;70169;51.262;6.336;2023-06-14T03:42:22;100835.16;;;16.88;57.78
80777;BME280;70169;51.262;6.336;2023-06-14T03:44:37;100839.91;;;16.86;58.29
80777;BME280;70169;51.262;6.336;2023-06-14T03:46:53;100842.59;;;16.86;58.61
80777;BME280;70169;51.262;6.336;2023-06-14T03:49:08;100842.81;;;16.84;58.56
80777;BME280;70169;51.262;6.336;2023-06-14T03:51:25;100840.59;;;16.81;58.36
80777;BME280;70169;51.262;6.336;2023-06-14T03:53:40;100838.16;;;16.80;58.27
80777;BME280;70169;51.262;6.336;2023-06-14T03:55:56;100844.53;;;16.78;57.80
80777;BME280;70169;51.262;6.336;2023-06-14T03:58:12;100846.66;;;16.76;57.08
80777;BME280;70169;51.262;6.336;2023-06-14T04:00:28;100843.97;;;16.76;56.14
80777;BME280;70169;51.262;6.336;2023-06-14T04:02:43;100848.53;;;16.76;56.05
80777;BME280;70169;51.262;6.336;2023-06-14T04:05:02;100850.13;;;16.77;56.99
80777;BME280;70169;51.262;6.336;2023-06-14T04:07:17;100854.41;;;16.78;57.28
80777;BME280;70169;51.262;6.336;2023-06-14T04:09:36;100848.03;;;16.79;57.29
80777;BME280;70169;51.262;6.336;2023-06-14T04:11:54;100851.03;;;16.83;57.19
80777;BME280;70169;51.262;6.336;2023-06-14T04:14:22;100845.72;;;16.83;56.18
80777;BME280;70169;51.262;6.336;2023-06-14T04:16:43;100854.88;;;16.87;56.27
80777;BME280;70169;51.262;6.336;2023-06-14T04:18:59;100856.28;;;16.89;56.64
80777;BME280;70169;51.262;6.336;2023-06-14T04:21:20;100860.53;;;16.90;55.59
80777;BME280;70169;51.262;6.336;2023-06-14T04:23:36;100856.84;;;16.91;55.63
80777;BME280;70169;51.262;6.336;2023-06-14T04:25:53;100854.72;;;16.93;56.04
80777;BME280;70169;51.262;6.336;2023-06-14T04:28:08;100859.81;;;16.95;56.52
80777;BME280;70169;51.262;6.336;2023-06-14T04:30:24;100858.78;;;16.96;56.96
80777;BME280;70169;51.262;6.336;2023-06-14T04:32:44;100876.44;;;16.97;56.58
80777;BME280;70169;51.262;6.336;2023-06-14T04:35:01;100869.22;;;16.98;56.32
80777;BME280;70169;51.262;6.336;2023-06-14T04:37:20;100868.19;;;16.99;56.56
80777;BME280;70169;51.262;6.336;2023-06-14T04:39:36;100876.22;;;16.99;56.07
80777;BME280;70169;51.262;6.336;2023-06-14T04:41:51;100878.03;;;16.98;55.58
80777;BME280;70169;51.262;6.336;2023-06-14T04:44:07;100870.03;;;16.98;55.87
80777;BME280;70169;51.262;6.336;2023-06-14T04:46:22;100874.91;;;17.01;56.00
80777;BME280;70169;51.262;6.336;2023-06-14T04:48:38;100876.28;;;17.04;55.75
80777;BME280;70169;51.262;6.336;2023-06-14T04:50:56;100875.59;;;17.08;56.05
80777;BME280;70169;51.262;6.336;2023-06-14T04:53:14;100878.25;;;17.08;55.98
80777;BME280;70169;51.262;6.336;2023-06-14T04:55:30;100884.16;;;17.10;56.12
80777;BME280;70169;51.262;6.336;2023-06-14T04:57:46;100886.81;;;17.10;55.56
80777;BME280;70169;51.262;6.336;2023-06-14T05:00:02;100892.72;;;17.12;55.76
80777;BME280;70169;51.262;6.336;2023-06-14T05:02:25;100897.84;;;17.14;55.98
80777;BME280;70169;51.262;6.336;2023-06-14T05:04:40;100893.66;;;17.18;55.58
80777;BME280;70169;51.262;6.336;2023-06-14T05:06:56;100891.31;;;17.22;55.26
80777;BME280;70169;51.262;6.336;2023-06-14T05:09:13;100899.66;;;17.25;54.87
80777;BME280;70169;51.262;6.336;2023-06-14T05:11:28;100903.16;;;17.26;54.28
80777;BME280;70169;51.262;6.336;2023-06-14T05:13:43;100901.84;;;17.28;54.76
80777;BME280;70169;51.262;6.336;2023-06-14T05:15:59;100903.47;;;17.29;54.49
80777;BME280;70169;51.262;6.336;2023-06-14T05:18:15;100906.94;;;17.30;54.39
80777;BME280;70169;51.262;6.336;2023-06-14T05:20:31;100906.47;;;17.33;54.76
80777;BME280;70169;51.262;6.336;2023-06-14T05:22:46;100905.44;;;17.34;54.12
80777;BME280;70169;51.262;6.336;2023-06-14T05:25:03;100909.22;;;17.38;54.87
80777;BME280;70169;51.262;6.336;2023-06-14T05:27:21;100902.84;;;17.39;54.91
80777;BME280;70169;51.262;6.336;2023-06-14T05:32:01;100907.22;;;17.45;55.42
80777;BME280;70169;51.262;6.336;2023-06-14T05:39:08;100913.28;;;17.58;53.75
80777;BME280;70169;51.262;6.336;2023-06-14T05:41:27;100908.31;;;17.61;53.96
80777;BME280;70169;51.262;6.336;2023-06-14T05:43:43;100904.41;;;17.69;53.73
80777;BME280;70169;51.262;6.336;2023-06-14T05:45:58;100905.88;;;17.77;53.09
80777;BME280;70169;51.262;6.336;2023-06-14T05:48:14;100912.91;;;17.83;52.47
80777;BME280;70169;51.262;6.336;2023-06-14T05:50:29;100917.31;;;17.89;53.12
80777;BME280;70169;51.262;6.336;2023-06-14T05:52:45;100916.69;;;17.99;52.63
80777;BME280;70169;51.262;6.336;2023-06-14T05:55:00;100915.13;;;18.03;52.34
80777;BME280;70169;51.262;6.336;2023-06-14T05:57:16;100925.50;;;18.16;51.18
80777;BME280;70169;51.262;6.336;2023-06-14T05:59:31;100920.09;;;18.33;50.30
80777;BME280;70169;51.262;6.336;2023-06-14T06:01:47;100925.47;;;18.72;49.38
80777;BME280;70169;51.262;6.336;2023-06-14T06:04:03;100935.34;;;19.16;48.82
80777;BME280;70169;51.262;6.336;2023-06-14T06:06:19;100943.84;;;19.35;48.16
80777;BME280;70169;51.262;6.336;2023-06-14T06:08:34;100940.66;;;19.38;47.16
80777;BME280;70169;51.262;6.336;2023-06-14T06:10:50;100942.22;;;19.34;47.49
80777;BME280;70169;51.262;6.336;2023-06-14T06:13:45;100941.84;;;19.25;46.88
80777;BME280;70169;51.262;6.336;2023-06-14T06:16:23;100945.31;;;19.21;47.95
80777;BME280;70169;51.262;6.336;2023-06-14T06:18:46;100951.97;;;19.18;48.31
80777;BME280;70169;51.262;6.336;2023-06-14T06:21:03;100956.84;;;19.21;48.51
80777;BME280;70169;51.262;6.336;2023-06-14T06:23:19;100954.72;;;19.23;48.57
80777;BME280;70169;51.262;6.336;2023-06-14T06:25:34;100958.56;;;19.33;48.41
80777;BME280;70169;51.262;6.336;2023-06-14T06:27:50;100962.69;;;19.40;48.27
80777;BME280;70169;51.262;6.336;2023-06-14T06:30:07;100957.09;;;19.47;47.78
80777;BME280;70169;51.262;6.336;2023-06-14T06:34:50;100966.66;;;19.65;46.41
80777;BME280;70169;51.262;6.336;2023-06-14T06:37:05;100964.00;;;19.70;47.61
80777;BME280;70169;51.262;6.336;2023-06-14T06:39:21;100967.63;;;19.81;47.94
80777;BME280;70169;51.262;6.336;2023-06-14T06:41:44;100970.97;;;19.93;47.94
80777;BME280;70169;51.262;6.336;2023-06-14T06:44:00;100976.66;;;20.02;47.95
80777;BME280;70169;51.262;6.336;2023-06-14T06:46:15;100969.25;;;20.14;48.00
80777;BME280;70169;51.262;6.336;2023-06-14T06:48:33;100981.91;;;20.24;48.37
80777;BME280;70169;51.262;6.336;2023-06-14T06:50:48;100986.56;;;20.34;48.19
80777;BME280;70169;51.262;6.336;2023-06-14T06:55:22;100987.72;;;20.48;47.51
80777;BME280;70169;51.262;6.336;2023-06-14T06:57:37;100993.91;;;20.54;47.75
80777;BME280;70169;51.262;6.336;2023-06-14T06:59:52;100991.34;;;20.64;47.15
80777;BME280;70169;51.262;6.336;2023-06-14T07:02:08;100988.69;;;20.74;47.73
80777;BME280;70169;51.262;6.336;2023-06-14T07:04:26;100991.38;;;20.80;46.64
80777;BME280;70169;51.262;6.336;2023-06-14T07:06:42;101000.53;;;20.79;46.14
80777;BME280;70169;51.262;6.336;2023-06-14T07:08:57;100998.91;;;20.77;45.58
80777;BME280;70169;51.262;6.336;2023-06-14T07:11:16;100998.13;;;20.77;45.33
80777;BME280;70169;51.262;6.336;2023-06-14T07:13:31;100998.91;;;20.77;45.51
80777;BME280;70169;51.262;6.336;2023-06-14T07:18:31;101005.09;;;20.83;45.94
80777;BME280;70169;51.262;6.336;2023-06-14T07:20:47;100998.16;;;20.87;45.24
80777;BME280;70169;51.262;6.336;2023-06-14T07:23:02;100996.00;;;20.89;45.88
80777;BME280;70169;51.262;6.336;2023-06-14T07:25:17;101000.84;;;20.92;45.44
80777;BME280;70169;51.262;6.336;2023-06-14T07:27:35;100995.50;;;20.98;45.71
80777;BME280;70169;51.262;6.336;2023-06-14T07:29:50;101000.09;;;21.02;45.32
80777;BME280;70169;51.262;6.336;2023-06-14T07:32:06;101005.50;;;21.12;46.36
80777;BME280;70169;51.262;6.336;2023-06-14T07:34:30;101002.06;;;21.22;46.14
80777;BME280;70169;51.262;6.336;2023-06-14T07:36:49;101003.97;;;21.32;45.52
80777;BME280;70169;51.262;6.336;2023-06-14T07:39:04;101001.56;;;21.41;45.75
80777;BME280;70169;51.262;6.336;2023-06-14T07:41:21;101007.00;;;21.51;45.34
80777;BME280;70169;51.262;6.336;2023-06-14T07:43:37;101001.09;;;21.59;44.37
80777;BME280;70169;51.262;6.336;2023-06-14T07:45:52;101005.16;;;21.67;44.94
80777;BME280;70169;51.262;6.336;2023-06-14T08:01:02;101008.38;;;22.10;41.07
80777;BME280;70169;51.262;6.336;2023-06-14T08:04:18;101013.22;;;22.24;41.26
80777;BME280;70169;51.262;6.336;2023-06-14T08:06:33;101008.13;;;22.32;41.25
80777;BME280;70169;51.262;6.336;2023-06-14T08:08:49;101003.53;;;22.43;41.06
80777;BME280;70169;51.262;6.336;2023-06-14T08:11:05;101006.47;;;22.52;39.77
80777;BME280;70169;51.262;6.336;2023-06-14T08:13:20;101003.22;;;22.55;37.69
80777;BME280;70169;51.262;6.336;2023-06-14T08:18:48;101007.00;;;22.54;34.63
80777;BME280;70169;51.262;6.336;2023-06-14T08:21:04;101012.97;;;22.51;35.86
80777;BME280;70169;51.262;6.336;2023-06-14T08:23:57;101002.19;;;22.51;35.92
80777;BME280;70169;51.262;6.336;2023-06-14T08:29:37;101011.84;;;22.62;35.40
80777;BME280;70169;51.262;6.336;2023-06-14T08:32:53;101007.50;;;22.71;35.90
80777;BME280;70169;51.262;6.336;2023-06-14T08:36:10;101013.41;;;22.79;33.76
80777;BME280;70169;51.262;6.336;2023-06-14T08:39:10;101008.31;;;22.77;35.01
80777;BME280;70169;51.262;6.336;2023-06-14T08:45:26;101008.22;;;22.92;33.46
80777;BME280;70169;51.262;6.336;2023-06-14T08:51:38;101005.00;;;23.01;34.04
80777;BME280;70169;51.262;6.336;2023-06-14T08:54:14;101013.84;;;23.06;34.02
80777;BME280;70169;51.262;6.336;2023-06-14T09:00:41;100990.06;;;23.24;35.46
80777;BME280;70169;51.262;6.336;2023-06-14T09:06:28;100991.38;;;23.26;33.19
80777;BME280;70169;51.262;6.336;2023-06-14T09:09:10;101001.63;;;23.35;34.46
80777;BME280;70169;51.262;6.336;2023-06-14T09:11:46;101004.25;;;23.45;35.32
80777;BME280;70169;51.262;6.336;2023-06-14T09:14:15;101001.81;;;23.43;34.82
80777;BME280;70169;51.262;6.336;2023-06-14T09:16:32;101004.25;;;23.45;34.81
80777;BME280;70169;51.262;6.336;2023-06-14T15:47:00;100970.53;;;24.40;37.51
80777;BME280;70169;51.262;6.336;2023-06-14T15:49:15;100972.66;;;24.44;38.05
80777;BME280;70169;51.262;6.336;2023-06-14T15:51:30;100973.19;;;24.46;38.16
80777;BME280;70169;51.262;6.336;2023-06-14T15:53:46;100969.94;;;24.44;36.55
80777;BME280;70169;51.262;6.336;2023-06-14T15:56:01;100967.81;;;24.40;37.10
80777;BME280;70169;51.262;6.336;2023-06-14T15:58:16;100964.38;;;24.35;37.50
80777;BME280;70169;51.262;6.336;2023-06-14T16:00:32;100966.56;;;24.33;37.35
80777;BME280;70169;51.262;6.336;2023-06-14T16:02:47;100966.31;;;24.29;36.46
80777;BME280;70169;51.262;6.336;2023-06-14T16:05:04;100961.47;;;24.26;36.63
80777;BME280;70169;51.262;6.336;2023-06-14T16:07:20;100959.59;;;24.27;37.13
80777;BME280;70169;51.262;6.336;2023-06-14T16:16:14;100959.91;;;24.25;37.39
80777;BME280;70169;51.262;6.336;2023-06-14T22:39:10;101161.88;;;19.46;51.58
80777;BME280;70169;51.262;6.336;2023-06-14T22:41:27;101166.16;;;19.42;51.52
80777;BME280;70169;51.262;6.336;2023-06-14T22:43:46;101171.41;;;19.37;52.22
80777;BME280;70169;51.262;6.336;2023-06-14T22:46:08;101169.75;;;19.30;52.75
80777;BME280;70169;51.262;6.336;2023-06-14T22:48:38;101173.41;;;19.24;53.21
80777;BME280;70169;51.262;6.336;2023-06-14T22:51:15;101164.97;;;19.16;53.09
80777;BME280;70169;51.262;6.336;2023-06-14T22:53:34;101167.56;;;19.10;53.46
80777;BME280;70169;51.262;6.336;2023-06-14T22:55:55;101165.06;;;19.04;53.46
80777;BME280;70169;51.262;6.336;2023-06-14T22:58:10;101171.16;;;18.99;53.73
80777;BME280;70169;51.262;6.336;2023-06-14T23:00:30;101178.06;;;18.95;54.27
80777;BME280;70169;51.262;6.336;2023-06-14T23:02:52;101175.78;;;18.87;54.50
80777;BME280;70169;51.262;6.336;2023-06-14T23:05:16;101169.50;;;18.81;54.31
80777;BME280;70169;51.262;6.336;2023-06-14T23:07:33;101178.50;;;18.75;54.76
80777;BME280;70169;51.262;6.336;2023-06-14T23:09:52;101180.31;;;18.69;54.90
80777;BME280;70169;51.262;6.336;2023-06-14T23:12:11;101176.72;;;18.64;55.63
80777;BME280;70169;51.262;6.336;2023-06-14T23:14:26;101172.09;;;18.59;55.84
80777;BME280;70169;51.262;6.336;2023-06-14T23:16:42;101177.38;;;18.54;56.15
80777;BME280;70169;51.262;6.336;2023-06-14T23:19:00;101173.81;;;18.48;56.42
80777;BME280;70169;51.262;6.336;2023-06-14T23:21:21;101171.84;;;18.44;56.70
80777;BME280;70169;51.262;6.336;2023-06-14T23:23:37;101172.56;;;18.39;57.14
80777;BME280;70169;51.262;6.336;2023-06-14T23:25:54;101175.97;;;18.34;57.25
80777;BME280;70169;51.262;6.336;2023-06-14T23:28:10;101175.88;;;18.29;57.33
80777;BME280;70169;51.262;6.336;2023-06-14T23:30:25;101179.25;;;18.25;57.69
80777;BME280;70169;51.262;6.336;2023-06-14T23:32:42;101175.44;;;18.20;57.98
80777;BME280;70169;51.262;6.336;2023-06-14T23:35:03;101173.00;;;18.19;57.70
80777;BME280;70169;51.262;6.336;2023-06-14T23:37:25;101178.00;;;18.15;58.20
80777;BME280;70169;51.262;6.336;2023-06-14T23:39:40;101175.81;;;18.12;58.23
80777;BME280;70169;51.262;6.336;2023-06-14T23:42:03;101181.63;;;18.09;58.30
80777;BME280;70169;51.262;6.336;2023-06-14T23:44:21;101171.66;;;18.04;58.62
80777;BME280;70169;51.262;6.336;2023-06-14T23:46:39;101176.66;;;18.01;58.65
80777;BME280;70169;51.262;6.336;2023-06-14T23:49:02;101180.06;;;17.96;58.69
80777;BME280;70169;51.262;6.336;2023-06-14T23:51:23;101178.91;;;17.92;58.65
80777;BME280;70169;51.262;6.336;2023-06-14T23:53:39;101176.47;;;17.91;58.74
80777;BME280;70169;51.262;6.336;2023-06-14T23:55:54;101179.63;;;17.88;58.52
80777;BME280;70169;51.262;6.336;2023-06-14T23:58:12;101180.63;;;17.86;58.58
